sensor_id;sensor_type;location;lat;lon;timestamp;P1;durP1;ratioP1;P2;durP2;ratioP2
38797;SDS011;24546;52.240;16.826;2023-02-22T00:01:46;25.95;;;7.18;;
38797;SDS011;24546;52.240;16.826;2023-02-22T00:06:50;29.20;;;8.23;;
38797;SDS011;24546;52.240;16.826;2023-02-22T00:11:51;19.70;;;7.03;;
38797;SDS011;24546;52.240;16.826;2023-02-22T00:16:52;21.48;;;7.30;;
38797;SDS011;24546;52.240;16.826;2023-02-22T00:21:59;23.48;;;7.00;;
38797;SDS011;24546;52.240;16.826;2023-02-22T00:27:00;20.63;;;6.15;;
38797;SDS011;24546;52.240;16.826;2023-02-22T00:32:02;18.95;;;6.85;;
38797;SDS011;24546;52.240;16.826;2023-02-22T00:37:04;23.58;;;5.68;;
38797;SDS011;24546;52.240;16.826;2023-02-22T00:42:05;20.42;;;6.38;;
38797;SDS011;24546;52.240;16.826;2023-02-22T00:47:06;22.92;;;7.07;;
38797;SDS011;24546;52.240;16.826;2023-02-22T00:52:08;20.20;;;7.10;;
38797;SDS011;24546;52.240;16.826;2023-02-22T00:57:09;19.73;;;6.50;;
38797;SDS011;24546;52.240;16.826;2023-02-22T01:02:10;25.08;;;7.57;;
38797;SDS011;24546;52.240;16.826;2023-02-22T01:07:13;22.15;;;6.88;;
38797;SDS011;24546;52.240;16.826;2023-02-22T01:12:34;18.48;;;6.30;;
38797;SDS011;24546;52.240;16.826;2023-02-22T01:17:36;17.45;;;5.97;;
38797;SDS011;24546;52.240;16.826;2023-02-22T01:22:39;27.80;;;7.38;;
38797;SDS011;24546;52.240;16.826;2023-02-22T01:27:42;18.33;;;6.80;;
38797;SDS011;24546;52.240;16.826;2023-02-22T01:32:43;21.42;;;7.97;;
38797;SDS011;24546;52.240;16.826;2023-02-22T01:37:45;16.75;;;7.28;;
38797;SDS011;24546;52.240;16.826;2023-02-22T01:42:47;20.55;;;6.40;;
38797;SDS011;24546;52.240;16.826;2023-02-22T01:47:53;19.88;;;7.70;;
38797;SDS011;24546;52.240;16.826;2023-02-22T01:52:56;19.02;;;6.70;;
38797;SDS011;24546;52.240;16.826;2023-02-22T01:57:57;22.13;;;8.40;;
38797;SDS011;24546;52.240;16.826;2023-02-22T02:03:01;27.70;;;9.27;;
38797;SDS011;24546;52.240;16.826;2023-02-22T02:08:10;23.90;;;9.02;;
38797;SDS011;24546;52.240;16.826;2023-02-22T02:13:24;24.87;;;8.33;;
38797;SDS011;24546;52.240;16.826;2023-02-22T02:18:27;26.50;;;9.73;;
38797;SDS011;24546;52.240;16.826;2023-02-22T02:39:59;18.55;;;6.93;;
38797;SDS011;24546;52.240;16.826;2023-02-22T02:45:22;20.98;;;6.60;;
38797;SDS011;24546;52.240;16.826;2023-02-22T02:50:36;19.67;;;5.35;;
38797;SDS011;24546;52.240;16.826;2023-02-22T02:55:48;22.88;;;6.13;;
38797;SDS011;24546;52.240;16.826;2023-02-22T03:00:51;23.83;;;7.53;;
38797;SDS011;24546;52.240;16.826;2023-02-22T03:11:28;22.88;;;6.65;;
38797;SDS011;24546;52.240;16.826;2023-02-22T03:26:59;19.02;;;6.43;;
38797;SDS011;24546;52.240;16.826;2023-02-22T03:32:14;21.60;;;6.43;;
38797;SDS011;24546;52.240;16.826;2023-02-22T03:37:20;19.20;;;6.60;;
38797;SDS011;24546;52.240;16.826;2023-02-22T03:42:28;18.38;;;7.07;;
38797;SDS011;24546;52.240;16.826;2023-02-22T03:47:46;16.55;;;5.60;;
38797;SDS011;24546;52.240;16.826;2023-02-22T03:52:51;19.80;;;6.28;;
38797;SDS011;24546;52.240;16.826;2023-02-22T04:03:03;18.08;;;6.45;;
38797;SDS011;24546;52.240;16.826;2023-02-22T04:08:04;17.27;;;6.63;;
38797;SDS011;24546;52.240;16.826;2023-02-22T04:13:06;19.90;;;6.35;;
38797;SDS011;24546;52.240;16.826;2023-02-22T04:18:09;16.02;;;5.45;;
38797;SDS011;24546;52.240;16.826;2023-02-22T04:23:11;18.17;;;6.53;;
38797;SDS011;24546;52.240;16.826;2023-02-22T04:28:15;19.02;;;7.38;;
38797;SDS011;24546;52.240;16.826;2023-02-22T04:33:22;17.90;;;6.35;;
38797;SDS011;24546;52.240;16.826;2023-02-22T04:38:24;19.27;;;6.97;;
38797;SDS011;24546;52.240;16.826;2023-02-22T04:43:26;21.42;;;7.03;;
38797;SDS011;24546;52.240;16.826;2023-02-22T04:48:35;21.65;;;6.38;;
38797;SDS011;24546;52.240;16.826;2023-02-22T04:53:36;18.83;;;5.80;;
38797;SDS011;24546;52.240;16.826;2023-02-22T04:58:37;17.25;;;5.68;;
38797;SDS011;24546;52.240;16.826;2023-02-22T05:03:38;19.65;;;6.00;;
38797;SDS011;24546;52.240;16.826;2023-02-22T05:08:39;17.38;;;6.03;;
38797;SDS011;24546;52.240;16.826;2023-02-22T05:13:40;19.23;;;5.55;;
38797;SDS011;24546;52.240;16.826;2023-02-22T05:18:41;14.70;;;5.38;;
38797;SDS011;24546;52.240;16.826;2023-02-22T05:23:42;21.88;;;5.28;;
38797;SDS011;24546;52.240;16.826;2023-02-22T05:28:44;15.18;;;5.35;;
38797;SDS011;24546;52.240;16.826;2023-02-22T05:33:45;18.60;;;5.57;;
38797;SDS011;24546;52.240;16.826;2023-02-22T05:38:47;24.58;;;7.60;;
38797;SDS011;24546;52.240;16.826;2023-02-22T05:43:48;25.85;;;7.25;;
38797;SDS011;24546;52.240;16.826;2023-02-22T05:48:49;17.42;;;5.85;;
38797;SDS011;24546;52.240;16.826;2023-02-22T05:53:50;17.73;;;6.07;;
38797;SDS011;24546;52.240;16.826;2023-02-22T05:58:52;20.60;;;5.93;;
38797;SDS011;24546;52.240;16.826;2023-02-22T06:03:53;20.27;;;6.13;;
38797;SDS011;24546;52.240;16.826;2023-02-22T06:08:54;20.23;;;4.38;;
38797;SDS011;24546;52.240;16.826;2023-02-22T06:13:55;20.40;;;4.97;;
38797;SDS011;24546;52.240;16.826;2023-02-22T06:18:56;19.08;;;6.18;;
38797;SDS011;24546;52.240;16.826;2023-02-22T06:24:01;15.38;;;5.50;;
38797;SDS011;24546;52.240;16.826;2023-02-22T06:29:03;24.52;;;5.25;;
38797;SDS011;24546;52.240;16.826;2023-02-22T06:34:05;15.40;;;4.93;;
38797;SDS011;24546;52.240;16.826;2023-02-22T06:39:06;17.13;;;5.72;;
38797;SDS011;24546;52.240;16.826;2023-02-22T06:44:11;20.48;;;6.45;;
38797;SDS011;24546;52.240;16.826;2023-02-22T06:49:13;20.10;;;6.85;;
38797;SDS011;24546;52.240;16.826;2023-02-22T06:54:14;23.75;;;7.70;;
38797;SDS011;24546;52.240;16.826;2023-02-22T06:59:15;43.40;;;16.48;;
38797;SDS011;24546;52.240;16.826;2023-02-22T07:04:17;79.30;;;32.92;;
38797;SDS011;24546;52.240;16.826;2023-02-22T07:09:17;113.45;;;45.20;;
38797;SDS011;24546;52.240;16.826;2023-02-22T07:14:18;134.38;;;57.55;;
38797;SDS011;24546;52.240;16.826;2023-02-22T07:19:19;158.35;;;70.78;;
38797;SDS011;24546;52.240;16.826;2023-02-22T07:24:20;115.88;;;56.60;;
38797;SDS011;24546;52.240;16.826;2023-02-22T07:29:22;87.70;;;38.10;;
38797;SDS011;24546;52.240;16.826;2023-02-22T07:34:23;55.33;;;24.48;;
38797;SDS011;24546;52.240;16.826;2023-02-22T07:39:24;52.33;;;27.25;;
38797;SDS011;24546;52.240;16.826;2023-02-22T07:44:26;56.88;;;26.08;;
38797;SDS011;24546;52.240;16.826;2023-02-22T07:49:27;55.40;;;24.92;;
38797;SDS011;24546;52.240;16.826;2023-02-22T07:54:28;59.45;;;28.13;;
38797;SDS011;24546;52.240;16.826;2023-02-22T07:59:29;50.22;;;22.23;;
38797;SDS011;24546;52.240;16.826;2023-02-22T08:04:30;39.70;;;18.98;;
38797;SDS011;24546;52.240;16.826;2023-02-22T08:09:31;32.47;;;15.80;;
38797;SDS011;24546;52.240;16.826;2023-02-22T08:14:32;46.75;;;17.55;;
38797;SDS011;24546;52.240;16.826;2023-02-22T08:19:33;33.88;;;14.82;;
38797;SDS011;24546;52.240;16.826;2023-02-22T08:24:34;31.52;;;13.75;;
38797;SDS011;24546;52.240;16.826;2023-02-22T08:29:35;37.40;;;15.57;;
38797;SDS011;24546;52.240;16.826;2023-02-22T08:34:39;29.42;;;11.80;;
38797;SDS011;24546;52.240;16.826;2023-02-22T08:39:41;28.50;;;11.32;;
38797;SDS011;24546;52.240;16.826;2023-02-22T08:44:43;27.73;;;12.13;;
38797;SDS011;24546;52.240;16.826;2023-02-22T08:49:44;26.63;;;12.38;;
38797;SDS011;24546;52.240;16.826;2023-02-22T08:54:45;24.38;;;11.65;;
38797;SDS011;24546;52.240;16.826;2023-02-22T08:59:46;29.02;;;13.70;;
38797;SDS011;24546;52.240;16.826;2023-02-22T09:04:47;33.08;;;13.32;;
38797;SDS011;24546;52.240;16.826;2023-02-22T09:09:48;27.98;;;12.25;;
38797;SDS011;24546;52.240;16.826;2023-02-22T09:14:49;32.45;;;12.90;;
38797;SDS011;24546;52.240;16.826;2023-02-22T09:19:50;26.90;;;11.35;;
38797;SDS011;24546;52.240;16.826;2023-02-22T09:24:52;26.92;;;13.07;;
38797;SDS011;24546;52.240;16.826;2023-02-22T09:29:53;24.60;;;10.63;;
38797;SDS011;24546;52.240;16.826;2023-02-22T09:34:55;24.35;;;10.65;;
38797;SDS011;24546;52.240;16.826;2023-02-22T09:39:56;19.02;;;9.85;;
38797;SDS011;24546;52.240;16.826;2023-02-22T09:45:04;20.13;;;9.18;;
38797;SDS011;24546;52.240;16.826;2023-02-22T09:50:13;26.38;;;12.80;;
38797;SDS011;24546;52.240;16.826;2023-02-22T10:00:40;15.75;;;7.43;;
38797;SDS011;24546;52.240;16.826;2023-02-22T10:05:44;12.68;;;6.22;;
38797;SDS011;24546;52.240;16.826;2023-02-22T10:10:53;17.10;;;7.25;;
38797;SDS011;24546;52.240;16.826;2023-02-22T10:26:24;20.80;;;8.32;;
38797;SDS011;24546;52.240;16.826;2023-02-22T10:31:32;20.45;;;9.23;;
38797;SDS011;24546;52.240;16.826;2023-02-22T10:36:38;17.75;;;8.60;;
38797;SDS011;24546;52.240;16.826;2023-02-22T10:41:50;20.75;;;9.30;;
38797;SDS011;24546;52.240;16.826;2023-02-22T10:46:54;20.60;;;9.23;;
38797;SDS011;24546;52.240;16.826;2023-02-22T10:51:59;20.98;;;9.75;;
38797;SDS011;24546;52.240;16.826;2023-02-22T10:57:01;20.30;;;9.02;;
38797;SDS011;24546;52.240;16.826;2023-02-22T11:12:30;18.25;;;8.00;;
38797;SDS011;24546;52.240;16.826;2023-02-22T11:17:38;19.27;;;8.52;;
38797;SDS011;24546;52.240;16.826;2023-02-22T11:22:40;16.98;;;8.85;;
38797;SDS011;24546;52.240;16.826;2023-02-22T11:27:43;19.95;;;10.07;;
38797;SDS011;24546;52.240;16.826;2023-02-22T11:32:48;18.50;;;8.38;;
38797;SDS011;24546;52.240;16.826;2023-02-22T11:38:34;17.45;;;7.35;;
38797;SDS011;24546;52.240;16.826;2023-02-22T11:43:37;14.52;;;7.05;;
38797;SDS011;24546;52.240;16.826;2023-02-22T11:48:38;18.73;;;8.52;;
38797;SDS011;24546;52.240;16.826;2023-02-22T12:04:44;17.02;;;8.95;;
38797;SDS011;24546;52.240;16.826;2023-02-22T12:10:17;22.05;;;11.57;;
38797;SDS011;24546;52.240;16.826;2023-02-22T12:15:41;17.08;;;9.93;;
38797;SDS011;24546;52.240;16.826;2023-02-22T12:20:54;18.00;;;9.93;;
38797;SDS011;24546;52.240;16.826;2023-02-22T12:26:04;21.02;;;9.90;;
38797;SDS011;24546;52.240;16.826;2023-02-22T12:31:20;18.73;;;9.77;;
38797;SDS011;24546;52.240;16.826;2023-02-22T12:36:49;18.38;;;10.32;;
38797;SDS011;24546;52.240;16.826;2023-02-22T12:41:54;14.48;;;8.13;;
38797;SDS011;24546;52.240;16.826;2023-02-22T12:46:56;15.95;;;8.75;;
38797;SDS011;24546;52.240;16.826;2023-02-22T12:52:11;18.85;;;8.88;;
38797;SDS011;24546;52.240;16.826;2023-02-22T12:57:49;15.63;;;7.75;;
38797;SDS011;24546;52.240;16.826;2023-02-22T13:19:02;11.82;;;7.70;;
38797;SDS011;24546;52.240;16.826;2023-02-22T13:45:57;13.63;;;6.93;;
38797;SDS011;24546;52.240;16.826;2023-02-22T13:56:30;15.55;;;8.30;;
38797;SDS011;24546;52.240;16.826;2023-02-22T14:01:42;12.40;;;7.13;;
38797;SDS011;24546;52.240;16.826;2023-02-22T14:06:46;16.10;;;7.90;;
38797;SDS011;24546;52.240;16.826;2023-02-22T14:11:48;14.73;;;8.05;;
38797;SDS011;24546;52.240;16.826;2023-02-22T14:22:27;16.45;;;8.35;;
38797;SDS011;24546;52.240;16.826;2023-02-22T14:27:39;14.25;;;7.43;;
38797;SDS011;24546;52.240;16.826;2023-02-22T14:32:41;15.18;;;8.43;;
38797;SDS011;24546;52.240;16.826;2023-02-22T14:37:43;15.32;;;7.22;;
38797;SDS011;24546;52.240;16.826;2023-02-22T14:43:04;14.85;;;7.65;;
38797;SDS011;24546;52.240;16.826;2023-02-22T14:48:18;12.43;;;6.72;;
38797;SDS011;24546;52.240;16.826;2023-02-22T14:53:45;13.80;;;6.78;;
38797;SDS011;24546;52.240;16.826;2023-02-22T14:58:51;20.08;;;16.15;;
38797;SDS011;24546;52.240;16.826;2023-02-22T15:03:57;40.75;;;20.92;;
38797;SDS011;24546;52.240;16.826;2023-02-22T15:09:10;136.00;;;51.80;;
38797;SDS011;24546;52.240;16.826;2023-02-22T15:14:24;107.90;;;36.60;;
38797;SDS011;24546;52.240;16.826;2023-02-22T15:19:32;51.25;;;22.15;;
38797;SDS011;24546;52.240;16.826;2023-02-22T15:24:36;40.25;;;17.00;;
38797;SDS011;24546;52.240;16.826;2023-02-22T15:29:39;21.05;;;10.35;;
38797;SDS011;24546;52.240;16.826;2023-02-22T15:34:43;18.58;;;7.60;;
38797;SDS011;24546;52.240;16.826;2023-02-22T15:39:44;29.92;;;15.13;;
38797;SDS011;24546;52.240;16.826;2023-02-22T15:44:46;34.22;;;16.15;;
38797;SDS011;24546;52.240;16.826;2023-02-22T15:55:32;19.02;;;10.52;;
38797;SDS011;24546;52.240;16.826;2023-02-22T16:00:40;22.08;;;12.35;;
38797;SDS011;24546;52.240;16.826;2023-02-22T16:05:44;157.32;;;49.53;;
38797;SDS011;24546;52.240;16.826;2023-02-22T16:11:00;249.00;;;60.37;;
38797;SDS011;24546;52.240;16.826;2023-02-22T16:16:04;335.38;;;89.00;;
38797;SDS011;24546;52.240;16.826;2023-02-22T16:21:06;281.73;;;78.75;;
38797;SDS011;24546;52.240;16.826;2023-02-22T16:26:29;150.43;;;53.35;;
38797;SDS011;24546;52.240;16.826;2023-02-22T16:31:35;83.25;;;34.08;;
38797;SDS011;24546;52.240;16.826;2023-02-22T16:36:44;71.70;;;29.48;;
38797;SDS011;24546;52.240;16.826;2023-02-22T16:41:51;71.07;;;31.48;;
38797;SDS011;24546;52.240;16.826;2023-02-22T16:46:57;46.05;;;22.40;;
38797;SDS011;24546;52.240;16.826;2023-02-22T16:51:59;35.78;;;19.60;;
38797;SDS011;24546;52.240;16.826;2023-02-22T16:57:02;35.17;;;18.33;;
38797;SDS011;24546;52.240;16.826;2023-02-22T17:02:04;41.05;;;20.10;;
38797;SDS011;24546;52.240;16.826;2023-02-22T17:07:08;38.20;;;21.70;;
38797;SDS011;24546;52.240;16.826;2023-02-22T17:12:09;46.55;;;24.02;;
38797;SDS011;24546;52.240;16.826;2023-02-22T17:17:11;46.75;;;26.05;;
38797;SDS011;24546;52.240;16.826;2023-02-22T17:22:17;46.03;;;24.05;;
38797;SDS011;24546;52.240;16.826;2023-02-22T17:32:20;50.70;;;27.08;;
38797;SDS011;24546;52.240;16.826;2023-02-22T17:37:23;58.85;;;28.95;;
38797;SDS011;24546;52.240;16.826;2023-02-22T17:42:24;50.80;;;26.17;;
38797;SDS011;24546;52.240;16.826;2023-02-22T17:47:25;63.45;;;30.67;;
38797;SDS011;24546;52.240;16.826;2023-02-22T17:52:26;68.38;;;34.45;;
38797;SDS011;24546;52.240;16.826;2023-02-22T17:57:29;51.47;;;25.90;;
38797;SDS011;24546;52.240;16.826;2023-02-22T18:02:30;50.15;;;24.23;;
38797;SDS011;24546;52.240;16.826;2023-02-22T18:07:33;44.60;;;22.67;;
38797;SDS011;24546;52.240;16.826;2023-02-22T18:12:35;37.83;;;19.25;;
38797;SDS011;24546;52.240;16.826;2023-02-22T18:17:36;31.45;;;18.25;;
38797;SDS011;24546;52.240;16.826;2023-02-22T18:22:37;31.90;;;19.45;;
38797;SDS011;24546;52.240;16.826;2023-02-22T18:27:42;33.03;;;16.63;;
38797;SDS011;24546;52.240;16.826;2023-02-22T18:32:43;28.17;;;16.25;;
38797;SDS011;24546;52.240;16.826;2023-02-22T18:37:45;29.02;;;16.65;;
38797;SDS011;24546;52.240;16.826;2023-02-22T18:42:46;35.40;;;20.80;;
38797;SDS011;24546;52.240;16.826;2023-02-22T18:47:47;35.17;;;19.75;;
38797;SDS011;24546;52.240;16.826;2023-02-22T18:52:48;34.13;;;17.98;;
38797;SDS011;24546;52.240;16.826;2023-02-22T18:57:49;34.35;;;19.38;;
38797;SDS011;24546;52.240;16.826;2023-02-22T19:02:50;37.22;;;20.25;;
38797;SDS011;24546;52.240;16.826;2023-02-22T19:07:52;35.70;;;20.73;;
38797;SDS011;24546;52.240;16.826;2023-02-22T19:12:53;33.78;;;19.77;;
38797;SDS011;24546;52.240;16.826;2023-02-22T19:17:54;37.38;;;20.13;;
38797;SDS011;24546;52.240;16.826;2023-02-22T19:22:55;35.20;;;19.50;;
38797;SDS011;24546;52.240;16.826;2023-02-22T19:27:56;55.92;;;29.13;;
38797;SDS011;24546;52.240;16.826;2023-02-22T19:32:57;39.38;;;21.30;;
38797;SDS011;24546;52.240;16.826;2023-02-22T19:37:58;42.95;;;22.45;;
38797;SDS011;24546;52.240;16.826;2023-02-22T19:43:00;34.92;;;18.45;;
38797;SDS011;24546;52.240;16.826;2023-02-22T19:48:00;35.55;;;21.05;;
38797;SDS011;24546;52.240;16.826;2023-02-22T19:53:01;40.65;;;21.08;;
38797;SDS011;24546;52.240;16.826;2023-02-22T19:58:02;39.33;;;20.58;;
38797;SDS011;24546;52.240;16.826;2023-02-22T20:03:03;39.38;;;21.92;;
38797;SDS011;24546;52.240;16.826;2023-02-22T20:08:08;39.72;;;21.88;;
38797;SDS011;24546;52.240;16.826;2023-02-22T20:13:09;41.20;;;21.83;;
38797;SDS011;24546;52.240;16.826;2023-02-22T20:18:11;37.30;;;20.25;;
38797;SDS011;24546;52.240;16.826;2023-02-22T20:23:12;36.00;;;19.73;;
38797;SDS011;24546;52.240;16.826;2023-02-22T20:28:13;32.85;;;18.50;;
38797;SDS011;24546;52.240;16.826;2023-02-22T20:33:14;32.92;;;18.02;;
38797;SDS011;24546;52.240;16.826;2023-02-22T20:38:16;30.35;;;16.65;;
38797;SDS011;24546;52.240;16.826;2023-02-22T20:43:18;31.98;;;17.35;;
38797;SDS011;24546;52.240;16.826;2023-02-22T20:48:19;25.70;;;16.95;;
38797;SDS011;24546;52.240;16.826;2023-02-22T20:53:20;29.20;;;16.23;;
38797;SDS011;24546;52.240;16.826;2023-02-22T20:58:21;31.27;;;17.65;;
38797;SDS011;24546;52.240;16.826;2023-02-22T21:03:22;64.43;;;31.23;;
38797;SDS011;24546;52.240;16.826;2023-02-22T21:08:23;31.95;;;16.92;;
38797;SDS011;24546;52.240;16.826;2023-02-22T21:13:24;31.40;;;16.63;;
38797;SDS011;24546;52.240;16.826;2023-02-22T21:18:25;26.23;;;15.05;;
38797;SDS011;24546;52.240;16.826;2023-02-22T21:23:26;25.55;;;15.18;;
38797;SDS011;24546;52.240;16.826;2023-02-22T21:28:27;59.72;;;29.83;;
38797;SDS011;24546;52.240;16.826;2023-02-22T21:33:28;27.73;;;15.18;;
38797;SDS011;24546;52.240;16.826;2023-02-22T21:38:30;27.98;;;16.42;;
38797;SDS011;24546;52.240;16.826;2023-02-22T21:43:32;27.10;;;15.82;;
38797;SDS011;24546;52.240;16.826;2023-02-22T21:48:33;23.55;;;13.80;;
38797;SDS011;24546;52.240;16.826;2023-02-22T21:53:34;29.05;;;15.90;;
38797;SDS011;24546;52.240;16.826;2023-02-22T21:58:35;26.85;;;14.82;;
38797;SDS011;24546;52.240;16.826;2023-02-22T22:03:36;30.35;;;17.15;;
38797;SDS011;24546;52.240;16.826;2023-02-22T22:08:38;25.60;;;14.57;;
38797;SDS011;24546;52.240;16.826;2023-02-22T22:13:40;22.90;;;13.25;;
38797;SDS011;24546;52.240;16.826;2023-02-22T22:18:42;28.50;;;15.90;;
38797;SDS011;24546;52.240;16.826;2023-02-22T22:23:44;35.50;;;18.65;;
38797;SDS011;24546;52.240;16.826;2023-02-22T22:28:47;29.80;;;15.70;;
38797;SDS011;24546;52.240;16.826;2023-02-22T22:33:51;34.78;;;16.60;;
38797;SDS011;24546;52.240;16.826;2023-02-22T22:38:53;29.77;;;16.77;;
38797;SDS011;24546;52.240;16.826;2023-02-22T22:43:56;28.30;;;14.70;;
38797;SDS011;24546;52.240;16.826;2023-02-22T22:48:57;28.52;;;14.88;;
38797;SDS011;24546;52.240;16.826;2023-02-22T22:53:59;28.50;;;14.77;;
38797;SDS011;24546;52.240;16.826;2023-02-22T22:59:01;27.00;;;14.48;;
38797;SDS011;24546;52.240;16.826;2023-02-22T23:04:08;21.73;;;11.77;;
38797;SDS011;24546;52.240;16.826;2023-02-22T23:09:15;30.13;;;14.85;;
38797;SDS011;24546;52.240;16.826;2023-02-22T23:14:20;27.20;;;14.93;;
38797;SDS011;24546;52.240;16.826;2023-02-22T23:19:21;26.20;;;14.93;;
38797;SDS011;24546;52.240;16.826;2023-02-22T23:24:22;36.13;;;16.88;;
38797;SDS011;24546;52.240;16.826;2023-02-22T23:29:26;27.10;;;13.95;;
38797;SDS011;24546;52.240;16.826;2023-02-22T23:34:29;25.58;;;14.00;;
38797;SDS011;24546;52.240;16.826;2023-02-22T23:39:30;28.23;;;15.52;;
38797;SDS011;24546;52.240;16.826;2023-02-22T23:44:32;29.15;;;14.75;;
38797;SDS011;24546;52.240;16.826;2023-02-22T23:49:33;28.15;;;15.60;;
38797;SDS011;24546;52.240;16.826;2023-02-22T23:54:37;27.83;;;14.77;;
38797;SDS011;24546;52.240;16.826;2023-02-22T23:59:42;27.00;;;14.35;;
